Time;durP1;ratioP1;P1;durP2;ratioP2;P2;SDS_P1;SDS_P2;PMS_P1;PMS_P2;Temp;Humidity;BMP_temperature;BMP_pressure;BME280_temperature;BME280_humidity;BME280_pressure;Samples;Min_cycle;Max_cycle;Signal;HPM_P1;HPM_P2
2021/07/01 00:00:59;;;;;;;27.95;12.55;;;;;;;19.47;83.60;99532.00;1716778;82;21062;-81
2021/07/01 00:03:27;;;;;;;24.18;12.30;;;;;;;19.45;84.29;99522.43;1712375;82;21026;-80
2021/07/01 00:05:54;;;;;;;23.62;13.08;;;;;;;19.43;83.43;99514.53;1712613;82;21144;-80
2021/07/01 00:08:23;;;;;;;23.27;12.90;;;;;;;19.42;83.17;99520.87;1707734;82;21081;-80
2021/07/01 00:10:52;;;;;;;21.65;13.22;;;;;;;19.43;82.98;99514.53;1703946;84;21101;-81
2021/07/01 00:13:19;;;;;;;18.85;11.35;;;;;;;19.44;82.75;99518.92;1704129;84;21082;-82
2021/07/01 00:15:46;;;;;;;28.47;13.40;;;;;;;19.43;84.48;99535.90;1710986;82;21110;-82
2021/07/01 00:18:13;;;;;;;21.97;13.28;;;;;;;19.39;83.62;99542.46;1712333;83;21100;-83
2021/07/01 00:20:39;;;;;;;21.20;13.80;;;;;;;19.35;83.18;99538.38;1712374;82;21581;-83
2021/07/01 00:23:06;;;;;;;20.82;13.32;;;;;;;19.32;84.52;99517.25;1712548;83;21070;-82
2021/07/01 00:25:34;;;;;;;19.80;13.32;;;;;;;19.32;85.36;99505.73;1712804;83;22266;-83
2021/07/01 00:28:01;;;;;;;20.10;13.13;;;;;;;19.28;85.69;99506.00;1712636;83;21077;-82
2021/07/01 00:30:30;;;;;;;19.60;13.22;;;;;;;19.27;84.97;99515.45;1712602;83;21113;-82
2021/07/01 00:32:57;;;;;;;19.10;13.83;;;;;;;19.26;84.24;99513.28;1712529;83;21034;-84
2021/07/01 00:35:23;;;;;;;28.92;14.20;;;;;;;19.25;85.35;99496.89;1712364;83;21439;-83
2021/07/01 00:37:51;;;;;;;22.75;13.13;;;;;;;19.25;86.17;99484.03;1712882;83;21061;-83
2021/07/01 00:40:18;;;;;;;23.98;14.65;;;;;;;19.22;86.26;99492.31;1712683;83;21113;-82
2021/07/01 00:42:46;;;;;;;54.00;24.77;;;;;;;19.23;86.75;99477.98;1712327;83;21204;-79
2021/07/01 00:45:13;;;;;;;31.00;15.53;;;;;;;19.26;87.04;99484.41;1712350;83;21019;-77
2021/07/01 00:47:40;;;;;;;18.50;12.25;;;;;;;19.29;84.56;99486.32;1712478;82;21022;-79
2021/07/01 00:50:10;;;;;;;22.95;14.30;;;;;;;19.30;85.30;99485.83;1712232;82;21081;-78
2021/07/01 00:52:38;;;;;;;21.82;13.38;;;;;;;19.31;85.74;99487.54;1712826;83;21076;-80
2021/07/01 00:55:09;;;;;;;18.25;12.45;;;;;;;19.28;86.16;99483.80;1712244;83;21493;-78
2021/07/01 00:57:36;;;;;;;24.35;12.95;;;;;;;19.24;86.67;99474.34;1712578;82;21074;-79
2021/07/01 01:00:24;;;;;;;22.90;13.95;;;;;;;19.22;86.97;99472.30;1712391;82;21050;-77
2021/07/01 01:02:41;;;;;;;22.15;13.65;;;;;;;19.23;87.63;99472.17;1712518;82;21588;-78
2021/07/01 01:05:09;;;;;;;19.90;13.93;;;;;;;19.25;85.95;99473.36;1702197;83;21596;-79
2021/07/01 01:07:36;;;;;;;15.55;11.75;;;;;;;19.28;86.04;99473.97;1712771;83;21076;-79
2021/07/01 01:10:06;;;;;;;14.63;8.43;;;;;;;19.30;86.08;99484.49;1712156;83;21037;-79
2021/07/01 01:12:34;;;;;;;22.45;13.60;;;;;;;19.29;85.92;99488.16;1712709;82;21292;-80
2021/07/01 01:15:04;;;;;;;13.00;7.03;;;;;;;19.27;86.53;99474.92;1712273;82;21108;-80
2021/07/01 01:17:32;;;;;;;22.47;9.07;;;;;;;19.26;86.14;99475.08;1713019;82;21474;-79
2021/07/01 01:20:01;;;;;;;29.87;13.88;;;;;;;19.24;85.50;99466.34;1712443;83;21124;-79
2021/07/01 01:22:29;;;;;;;27.07;13.98;;;;;;;19.22;86.28;99467.80;1712584;83;21002;-79
2021/07/01 01:24:58;;;;;;;16.95;9.40;;;;;;;19.20;87.01;99455.55;1712352;82;21129;-80
2021/07/01 01:27:25;;;;;;;22.70;11.15;;;;;;;19.19;87.19;99456.55;1712435;83;21061;-77
2021/07/01 01:29:52;;;;;;;22.82;12.35;;;;;;;19.16;86.35;99450.11;1712468;83;21105;-78
2021/07/01 01:32:20;;;;;;;20.50;11.65;;;;;;;19.14;85.16;99448.92;1712184;83;21127;-78
2021/07/01 01:34:47;;;;;;;27.50;13.15;;;;;;;19.11;84.73;99441.64;1712429;83;21046;-77
2021/07/01 01:37:14;;;;;;;30.02;14.00;;;;;;;19.10;86.08;99447.97;1712659;83;21490;-80
2021/07/01 01:39:48;;;;;;;32.88;15.23;;;;;;;19.06;87.17;99442.87;1712360;82;21620;-80
2021/07/01 01:42:18;;;;;;;33.08;15.70;;;;;;;19.01;88.76;99432.23;1712693;83;21070;-80
2021/07/01 01:44:46;;;;;;;28.30;14.28;;;;;;;18.95;89.81;99428.73;1712399;83;21535;-80
2021/07/01 01:47:19;;;;;;;32.58;14.87;;;;;;;18.88;90.28;99436.39;1712397;82;21584;-80
2021/07/01 01:49:47;;;;;;;31.90;14.98;;;;;;;18.85;90.87;99437.49;1712547;83;21097;-78
2021/07/01 01:52:15;;;;;;;35.68;15.18;;;;;;;18.86;91.28;99427.66;1712806;82;21105;-79
2021/07/01 01:54:44;;;;;;;26.35;13.00;;;;;;;18.90;90.72;99434.45;1712683;82;21113;-79
2021/07/01 01:57:13;;;;;;;31.42;14.55;;;;;;;18.94;89.64;99425.22;1712652;83;21119;-81
2021/07/01 01:59:47;;;;;;;25.72;10.53;;;;;;;19.00;89.34;99424.72;1686506;82;21597;-80
2021/07/01 02:02:32;;;;;;;18.80;12.23;;;;;;;19.07;87.25;99435.70;1683655;85;21045;-79
2021/07/01 02:05:13;;;;;;;22.25;15.45;;;;;;;19.15;88.95;99439.92;1682528;84;21085;-78
2021/07/01 02:07:42;;;;;;;20.48;13.10;;;;;;;19.20;88.84;99422.19;1693928;83;21113;-80
2021/07/01 02:10:15;;;;;;;28.85;16.00;;;;;;;19.26;89.68;99421.69;1712022;82;21118;-79
2021/07/01 02:12:43;;;;;;;24.15;13.30;;;;;;;19.27;89.20;99420.70;1697447;83;21104;-79
2021/07/01 02:15:14;;;;;;;16.82;12.93;;;;;;;19.33;89.54;99417.52;1712376;83;21031;-79
2021/07/01 02:17:43;;;;;;;17.98;13.13;;;;;;;19.38;88.86;99412.63;1712417;82;21097;-78
2021/07/01 02:20:14;;;;;;;15.93;11.12;;;;;;;19.41;87.93;99404.34;1712358;82;21053;-79
2021/07/01 02:22:42;;;;;;;14.13;8.85;;;;;;;19.52;86.66;99429.30;1712328;82;21193;-79
2021/07/01 02:25:10;;;;;;;16.40;12.98;;;;;;;19.54;86.69;99419.34;1712336;83;21089;-78
2021/07/01 02:27:40;;;;;;;16.97;12.63;;;;;;;19.57;87.25;99419.06;1712495;83;21050;-77
2021/07/01 02:30:10;;;;;;;21.48;14.65;;;;;;;19.61;87.24;99407.14;1712219;82;21619;-77
2021/07/01 02:32:38;;;;;;;18.07;13.32;;;;;;;19.65;85.57;99407.25;1712569;83;21160;-78
2021/07/01 02:35:07;;;;;;;17.67;12.98;;;;;;;19.67;86.94;99401.28;1712430;83;21086;-78
2021/07/01 02:37:52;;;;;;;19.15;13.85;;;;;;;19.68;87.85;99393.62;1712446;83;21038;-79
2021/07/01 02:40:30;;;;;;;15.85;13.45;;;;;;;19.73;87.90;99389.24;1712222;82;21045;-81
2021/07/01 02:42:58;;;;;;;19.90;13.35;;;;;;;19.75;87.75;99393.96;1711913;82;21018;-80
2021/07/01 02:45:27;;;;;;;26.70;13.48;;;;;;;19.75;87.73;99393.47;1712024;82;21350;-82
2021/07/01 02:48:13;;;;;;;32.40;14.63;;;;;;;19.73;87.60;99384.73;1712632;83;21518;-80
2021/07/01 02:50:42;;;;;;;32.65;13.48;;;;;;;19.70;87.58;99386.35;1712333;83;21046;-82
2021/07/01 02:53:09;;;;;;;27.27;13.93;;;;;;;19.64;87.65;99378.83;1712444;83;21635;-81
2021/07/01 02:55:36;;;;;;;29.10;13.68;;;;;;;19.66;87.72;99387.55;1712687;83;21042;-82
2021/07/01 02:58:03;;;;;;;26.25;12.85;;;;;;;19.63;87.59;99381.16;1702263;83;21563;-80
2021/07/01 03:00:31;;;;;;;20.65;12.18;;;;;;;19.63;87.46;99376.66;1712243;83;21455;-80
2021/07/01 03:02:58;;;;;;;20.77;13.20;;;;;;;19.64;86.98;99377.48;1720265;81;21073;-77
2021/07/01 03:05:28;;;;;;;24.37;13.08;;;;;;;19.63;87.52;99381.99;1714567;83;21153;-76
2021/07/01 03:07:55;;;;;;;23.55;12.78;;;;;;;19.64;86.97;99388.17;1725021;81;21029;-76
2021/07/01 03:10:22;;;;;;;32.03;13.58;;;;;;;19.66;87.94;99380.88;1725128;83;21142;-76
2021/07/01 03:12:57;;;;;;;36.55;13.22;;;;;;;19.70;88.14;99387.69;1724697;82;22059;-75
2021/07/01 03:15:25;;;;;;;28.60;12.60;;;;;;;19.74;87.95;99387.78;1724784;83;21571;-75
2021/07/01 03:17:52;;;;;;;26.85;12.85;;;;;;;19.83;87.56;99395.00;1725137;83;21061;-74
2021/07/01 03:20:21;;;;;;;20.17;11.60;;;;;;;19.91;87.46;99401.83;1724668;82;21077;-74
2021/07/01 03:23:06;;;;;;;20.08;11.73;;;;;;;20.05;87.14;99405.13;1725177;83;21018;-76
2021/07/01 03:25:34;;;;;;;21.05;11.80;;;;;;;20.16;86.19;99407.70;1725255;83;21155;-75
2021/07/01 03:28:01;;;;;;;15.28;10.45;;;;;;;20.27;85.83;99404.92;1708906;83;21537;-75
2021/07/01 03:30:28;;;;;;;19.35;9.85;;;;;;;20.41;84.55;99410.88;1675218;83;21642;-76
2021/07/01 03:32:56;;;;;;;18.52;10.70;;;;;;;20.56;84.12;99414.86;1690663;83;21524;-75
2021/07/01 03:35:23;;;;;;;13.30;9.53;;;;;;;20.73;83.42;99419.55;1673022;85;21097;-77
2021/07/01 03:38:09;;;;;;;20.90;11.80;;;;;;;20.94;82.45;99434.64;1673092;85;21151;-76
2021/07/01 03:40:50;;;;;;;20.10;11.65;;;;;;;21.14;79.70;99444.37;1656997;84;21061;-75
2021/07/01 03:43:18;;;;;;;18.57;10.95;;;;;;;21.34;80.65;99441.66;1673159;85;21106;-74
2021/07/01 03:45:48;;;;;;;13.20;8.63;;;;;;;21.51;80.14;99449.02;1672771;85;21114;-74
2021/07/01 03:48:16;;;;;;;18.95;10.63;;;;;;;21.53;80.05;99452.41;1672856;85;21050;-74
2021/07/01 03:50:46;;;;;;;14.50;11.22;;;;;;;21.52;80.08;99457.39;1669451;85;21401;-73
2021/07/01 03:53:15;;;;;;;13.68;10.13;;;;;;;21.52;80.17;99470.78;1672811;85;21086;-75
2021/07/01 03:55:42;;;;;;;13.53;10.08;;;;;;;21.64;79.46;99482.69;1672868;85;21128;-76
2021/07/01 03:58:09;;;;;;;14.35;9.85;;;;;;;21.81;78.58;99494.49;1673330;85;21102;-76
2021/07/01 04:00:36;;;;;;;18.40;11.35;;;;;;;21.86;78.00;99481.03;1660517;85;21057;-75
2021/07/01 04:03:05;;;;;;;13.43;10.53;;;;;;;21.93;77.93;99490.67;1635447;87;21340;-75
2021/07/01 04:05:36;;;;;;;15.15;9.78;;;;;;;21.88;77.00;99487.56;1630646;87;21049;-75
2021/07/01 04:08:04;;;;;;;18.25;13.58;;;;;;;21.79;77.21;99486.62;1697896;83;21050;-76
2021/07/01 04:10:40;;;;;;;12.25;10.20;;;;;;;21.71;79.06;99492.68;1707214;83;21074;-76
2021/07/01 04:13:11;;;;;;;15.30;12.20;;;;;;;21.61;80.07;99496.38;1694244;82;21120;-76
2021/07/01 04:17:19;;;;;;;16.80;12.25;;;;;;;21.53;80.79;99505.98;1793563;79;22825;-77
2021/07/01 04:19:54;;;;;;;15.10;12.40;;;;;;;21.53;80.42;99492.59;1729268;81;21024;-79
2021/07/01 04:22:40;;;;;;;19.92;14.33;;;;;;;21.63;79.66;99500.61;1733151;81;21577;-76
2021/07/01 04:25:25;;;;;;;22.13;15.00;;;;;;;21.74;80.26;99499.58;1729574;81;21107;-79
2021/07/01 04:27:52;;;;;;;19.30;14.10;;;;;;;21.82;80.40;99506.42;1739023;81;21043;-75
2021/07/01 04:30:19;;;;;;;20.60;14.18;;;;;;;21.89;79.87;99508.03;1740637;81;21106;-76
2021/07/01 04:32:47;;;;;;;27.60;15.45;;;;;;;21.93;79.42;99496.04;1656453;83;21669;-77
2021/07/01 04:35:15;;;;;;;20.85;14.70;;;;;;;21.98;78.58;99487.89;1748907;81;21120;-76
2021/07/01 04:37:42;;;;;;;14.53;13.03;;;;;;;22.03;78.90;99487.96;1689221;84;21085;-75
2021/07/01 04:40:12;;;;;;;16.65;14.25;;;;;;;22.06;77.58;99490.34;1677977;85;21100;-77
2021/07/01 04:42:41;;;;;;;19.75;15.05;;;;;;;22.08;78.11;99493.22;1680588;84;21089;-78
2021/07/01 04:45:11;;;;;;;20.90;14.43;;;;;;;22.12;78.78;99485.24;1667043;84;21045;-76
2021/07/01 04:47:39;;;;;;;16.95;13.43;;;;;;;22.17;78.71;99487.48;1691176;83;21108;-77
2021/07/01 04:50:07;;;;;;;19.73;15.03;;;;;;;22.22;78.48;99498.64;1703286;83;21010;-77
2021/07/01 04:52:52;;;;;;;17.30;14.25;;;;;;;22.21;78.53;99488.92;1702319;83;21130;-77
2021/07/01 04:55:37;;;;;;;22.35;16.52;;;;;;;22.28;78.50;99495.88;1691971;84;21381;-76
2021/07/01 04:58:10;;;;;;;18.07;14.87;;;;;;;22.30;78.40;99503.29;1678131;84;21085;-79
2021/07/01 05:00:39;;;;;;;19.98;16.05;;;;;;;22.29;78.53;99503.80;1670637;85;23142;-77
2021/07/01 05:03:24;;;;;;;26.35;18.65;;;;;;;22.26;78.19;99508.09;1699705;84;21084;-76
2021/07/01 05:05:51;;;;;;;23.12;15.80;;;;;;;22.24;78.61;99514.59;1704612;84;21595;-76
2021/07/01 05:08:20;;;;;;;23.83;17.73;;;;;;;22.21;78.00;99525.12;1690967;84;21085;-75
2021/07/01 05:10:48;;;;;;;23.45;18.37;;;;;;;22.19;78.56;99527.91;1715801;83;21053;-79
2021/07/01 05:13:20;;;;;;;25.02;18.80;;;;;;;22.19;78.72;99521.70;1694222;83;21582;-79
2021/07/01 05:15:49;;;;;;;26.68;18.95;;;;;;;22.18;78.88;99526.73;1717251;83;21018;-80
2021/07/01 05:18:20;;;;;;;30.23;22.20;;;;;;;22.18;78.53;99529.41;1715884;83;21077;-77
2021/07/01 05:20:53;;;;;;;37.45;25.08;;;;;;;22.20;79.08;99532.30;1696566;83;21042;-77
2021/07/01 05:23:38;;;;;;;38.63;25.80;;;;;;;22.23;78.66;99537.89;1688057;85;21151;-81
2021/07/01 05:26:26;;;;;;;34.30;26.15;;;;;;;22.24;77.55;99536.89;1605583;87;21162;-82
2021/07/01 05:28:55;;;;;;;37.15;24.47;;;;;;;22.24;77.07;99535.55;1580685;89;21572;-82
2021/07/01 05:31:41;;;;;;;31.68;21.30;;;;;;;22.28;77.30;99540.98;1645815;85;21537;-81
2021/07/01 05:34:26;;;;;;;36.77;24.15;;;;;;;22.31;75.29;99546.04;1745610;82;21533;-85
2021/07/01 05:36:53;;;;;;;28.00;23.77;;;;;;;22.33;76.93;99542.72;1746612;82;21076;-85
2021/07/01 05:39:23;;;;;;;27.20;20.52;;;;;;;22.31;77.50;99546.04;1743972;82;21644;-85
2021/07/01 05:41:51;;;;;;;31.05;20.55;;;;;;;22.33;77.60;99552.11;1746777;82;21065;-84
2021/07/01 05:44:18;;;;;;;29.65;20.65;;;;;;;22.36;76.90;99553.17;1740291;82;21062;-86
2021/07/01 05:46:50;;;;;;;27.85;20.35;;;;;;;22.44;75.97;99551.59;1748786;82;21065;-85
2021/07/01 05:49:16;;;;;;;26.27;20.88;;;;;;;22.53;77.43;99548.02;1748388;82;21630;-85
2021/07/01 05:51:47;;;;;;;30.77;19.20;;;;;;;22.60;77.53;99550.46;1747518;82;21928;-85
2021/07/01 05:54:33;;;;;;;27.35;19.07;;;;;;;22.66;77.11;99552.56;1748600;82;21085;-86
2021/07/01 05:56:58;;;;;;;24.90;20.35;;;;;;;22.70;77.35;99561.98;1748030;82;21073;-87
2021/07/01 05:59:26;;;;;;;34.08;24.10;;;;;;;22.70;78.05;99570.03;1747927;82;21591;-87
2021/07/01 06:01:54;;;;;;;26.57;20.45;;;;;;;22.62;79.66;99560.55;1724380;82;21069;-87
2021/07/01 06:04:20;;;;;;;27.32;22.17;;;;;;;22.59;79.26;99562.17;1719104;82;21101;-82
2021/07/01 06:07:06;;;;;;;26.48;22.35;;;;;;;22.53;79.92;99554.73;1718969;82;21101;-85
2021/07/01 06:09:35;;;;;;;25.82;21.33;;;;;;;22.46;80.91;99555.81;1719227;82;21088;-84
2021/07/01 06:12:03;;;;;;;24.23;20.43;;;;;;;22.37;80.96;99558.87;1718952;83;21054;-84
2021/07/01 06:14:30;;;;;;;27.77;20.90;;;;;;;22.30;80.59;99559.62;1719159;83;21038;-84
2021/07/01 06:17:04;;;;;;;29.63;18.98;;;;;;;22.35;81.00;99560.85;1735920;82;21156;-83
2021/07/01 06:19:27;;;;;;;27.52;19.85;;;;;;;22.40;81.61;99558.57;1740043;82;21621;-83
2021/07/01 06:21:54;;;;;;;30.08;22.42;;;;;;;22.43;81.72;99552.09;1740999;82;21057;-85
2021/07/01 06:24:22;;;;;;;29.92;22.60;;;;;;;22.46;81.42;99548.27;1677264;85;21419;-84
2021/07/01 06:26:49;;;;;;;32.20;21.42;;;;;;;22.51;81.26;99552.69;1741268;82;21042;-86
2021/07/01 06:29:17;;;;;;;34.63;21.87;;;;;;;22.54;81.30;99557.25;1737622;82;21156;-84
2021/07/01 06:31:44;;;;;;;24.35;18.77;;;;;;;22.59;80.99;99554.99;1724109;82;21087;-83
2021/07/01 06:34:13;;;;;;;23.40;17.25;;;;;;;22.63;80.95;99552.84;1696582;83;21074;-85
2021/07/01 06:36:42;;;;;;;25.60;17.42;;;;;;;22.66;80.00;99544.52;1724984;82;21521;-84
2021/07/01 06:39:29;;;;;;;35.20;20.70;;;;;;;22.73;79.61;99545.60;1638338;85;21062;-83
2021/07/01 06:42:15;;;;;;;24.32;16.90;;;;;;;22.81;79.44;99535.45;1722502;82;21904;-85
2021/07/01 06:44:50;;;;;;;26.17;19.30;;;;;;;22.88;78.71;99539.72;1705725;82;21093;-86
2021/07/01 06:47:35;;;;;;;27.42;19.32;;;;;;;22.93;78.59;99545.48;1676720;85;22170;-86
2021/07/01 06:50:27;;;;;;;24.63;18.80;;;;;;;22.96;77.98;99550.54;1725890;82;21034;-86
2021/07/01 06:53:14;;;;;;;23.22;17.20;;;;;;;22.98;78.30;99549.89;1719380;82;21057;-84
2021/07/01 06:55:51;;;;;;;22.00;15.63;;;;;;;23.07;77.17;99550.36;1726486;82;21135;-83
2021/07/01 06:58:19;;;;;;;;;;;;;;;23.16;75.65;99543.25;1713575;82;21105;-84
2021/07/01 07:00:48;;;;;;;17.80;13.72;;;;;;;23.26;74.47;99534.64;1731176;82;20209;-82
2021/07/01 07:03:18;;;;;;;15.45;12.13;;;;;;;23.40;74.14;99546.19;1714282;82;21091;-84
2021/07/01 07:05:52;;;;;;;17.73;11.55;;;;;;;23.56;74.71;99549.52;1728550;82;21033;-84
2021/07/01 07:08:19;;;;;;;19.42;13.65;;;;;;;23.69;75.19;99548.27;1728387;82;21127;-82
2021/07/01 07:10:49;;;;;;;21.87;13.72;;;;;;;23.80;74.15;99537.31;1738713;82;21081;-84
2021/07/01 07:13:16;;;;;;;23.00;14.13;;;;;;;23.90;73.48;99534.02;1715062;82;21045;-82
2021/07/01 07:15:43;;;;;;;17.80;12.30;;;;;;;24.11;73.20;99539.53;1721394;82;21138;-83
2021/07/01 07:18:25;;;;;;;19.42;13.03;;;;;;;24.33;72.74;99539.00;1706223;82;21065;-85
2021/07/01 07:20:58;;;;;;;18.85;13.75;;;;;;;24.48;71.70;99530.72;1728300;82;21564;-85
2021/07/01 07:23:31;;;;;;;22.27;14.25;;;;;;;24.59;71.94;99528.73;1732543;82;21046;-86
2021/07/01 07:26:00;;;;;;;20.37;12.25;;;;;;;24.76;70.45;99524.27;1686026;84;21570;-86
2021/07/01 07:28:29;;;;;;;20.72;13.85;;;;;;;24.95;69.18;99531.23;1683937;84;21082;-86
2021/07/01 07:30:56;;;;;;;15.78;11.48;;;;;;;25.12;69.17;99519.47;1722339;82;21122;-85
2021/07/01 07:33:26;;;;;;;16.60;11.80;;;;;;;25.37;66.76;99522.23;1727285;82;21508;-86
2021/07/01 07:35:54;;;;;;;16.80;12.63;;;;;;;25.45;65.29;99519.56;1713407;82;21106;-84
2021/07/01 07:38:22;;;;;;;18.50;13.13;;;;;;;25.58;65.88;99513.14;1716485;82;21126;-84
2021/07/01 07:40:50;;;;;;;15.78;11.40;;;;;;;25.73;64.82;99510.11;1708569;82;21045;-83
2021/07/01 07:43:22;;;;;;;20.72;10.88;;;;;;;25.88;64.08;99500.01;1712825;82;21125;-83
2021/07/01 07:45:52;;;;;;;21.12;12.63;;;;;;;26.03;64.90;99499.66;1738279;82;21062;-85
2021/07/01 07:48:20;;;;;;;26.62;12.50;;;;;;;26.20;64.09;99501.80;1671557;85;21081;-82
2021/07/01 07:50:51;;;;;;;20.12;11.30;;;;;;;26.34;63.65;99504.28;1647500;85;21106;-85
2021/07/01 07:53:21;;;;;;;16.45;10.70;;;;;;;26.51;62.08;99500.52;1663560;86;21116;-85
2021/07/01 07:55:51;;;;;;;16.95;10.85;;;;;;;26.67;61.51;99506.91;1673286;85;21169;-85
2021/07/01 07:58:18;;;;;;;20.00;11.05;;;;;;;26.81;61.22;99503.45;1739377;82;21482;-83
2021/07/01 08:00:46;;;;;;;12.28;9.78;;;;;;;26.97;60.91;99503.36;1728967;82;21065;-85
2021/07/01 08:03:13;;;;;;;15.32;10.48;;;;;;;27.11;58.49;99495.52;1709485;83;21109;-83
2021/07/01 08:05:40;;;;;;;15.35;11.43;;;;;;;27.30;58.25;99491.52;1710253;83;21632;-84
2021/07/01 08:08:12;;;;;;;14.58;10.65;;;;;;;27.36;57.29;99497.05;1709767;83;21140;-84
2021/07/01 08:10:40;;;;;;;15.38;9.58;;;;;;;27.43;57.82;99489.06;1733975;82;21125;-83
2021/07/01 08:13:09;;;;;;;16.15;9.83;;;;;;;27.43;57.18;99482.81;1667999;85;21066;-84
2021/07/01 08:15:38;;;;;;;19.52;10.48;;;;;;;27.53;56.78;99479.34;1667611;84;21089;-85
2021/07/01 08:18:10;;;;;;;19.23;9.85;;;;;;;27.71;56.86;99479.84;1634926;85;21512;-84
2021/07/01 08:20:37;;;;;;;12.73;8.70;;;;;;;27.93;56.24;99478.64;1649461;85;21058;-84
2021/07/01 08:23:04;;;;;;;13.40;9.70;;;;;;;28.19;55.67;99471.44;1687158;85;21509;-83
2021/07/01 08:25:32;;;;;;;15.28;9.65;;;;;;;28.52;54.75;99469.72;1664757;85;21078;-85
2021/07/01 08:27:59;;;;;;;16.65;9.68;;;;;;;28.79;53.75;99478.48;1687037;85;21131;-85
2021/07/01 08:30:26;;;;;;;15.75;8.95;;;;;;;29.20;53.27;99487.94;1663026;86;21122;-87
2021/07/01 08:32:57;;;;;;;16.07;8.65;;;;;;;29.59;51.06;99479.84;1679386;85;21029;-83
2021/07/01 08:35:25;;;;;;;18.77;8.40;;;;;;;29.82;49.63;99472.33;1656775;86;21894;-85
2021/07/01 08:38:02;;;;;;;23.18;8.73;;;;;;;30.03;49.11;99470.59;1655639;86;21076;-84
2021/07/01 08:40:36;;;;;;;14.03;8.30;;;;;;;30.35;48.27;99462.34;1637235;85;21525;-84
2021/07/01 08:43:05;;;;;;;20.27;9.38;;;;;;;30.49;48.57;99472.75;1711155;83;22274;-84
2021/07/01 08:45:58;;;;;;;11.78;8.40;;;;;;;30.44;48.56;99477.96;1719082;83;21105;-84
2021/07/01 08:48:25;;;;;;;22.52;10.18;;;;;;;30.37;48.53;99475.20;1712274;83;21876;-84
2021/07/01 08:50:58;;;;;;;20.48;9.38;;;;;;;30.23;48.94;99466.13;1696151;83;21117;-83
2021/07/01 08:53:39;;;;;;;11.70;8.50;;;;;;;30.19;48.92;99472.98;1711649;83;21104;-82
2021/07/01 08:56:06;;;;;;;18.73;9.45;;;;;;;30.26;48.86;99460.31;1713243;82;21576;-84
2021/07/01 08:58:33;;;;;;;14.13;9.53;;;;;;;30.29;47.96;99465.86;1701705;83;21544;-83
2021/07/01 09:01:00;;;;;;;13.45;9.58;;;;;;;30.17;48.24;99456.05;1709139;83;21102;-83
2021/07/01 09:03:29;;;;;;;14.03;8.98;;;;;;;30.18;48.37;99459.07;1706571;82;21110;-83
2021/07/01 09:05:56;;;;;;;16.60;9.53;;;;;;;30.00;48.98;99460.11;1620663;86;21101;-82
2021/07/01 09:08:23;;;;;;;14.20;8.80;;;;;;;29.88;48.96;99459.30;1656094;86;21089;-83
2021/07/01 09:10:54;;;;;;;14.68;8.38;;;;;;;29.90;48.22;99457.76;1693799;83;21580;-83
2021/07/01 09:13:22;;;;;;;;;;;;;;;30.05;47.82;99454.95;1724037;83;21359;-91
2021/07/01 09:15:51;;;;;;;17.55;9.80;;;;;;;30.20;47.75;99455.64;1716360;83;20195;-81
2021/07/01 09:18:20;;;;;;;13.72;9.20;;;;;;;30.30;47.74;99461.59;1722495;83;21569;-82
2021/07/01 09:20:47;;;;;;;23.03;9.00;;;;;;;30.58;47.62;99462.55;1738326;81;21580;-86
2021/07/01 09:23:14;;;;;;;29.95;9.05;;;;;;;30.83;45.10;99461.47;1754705;81;21084;-86
2021/07/01 09:25:42;;;;;;;12.65;7.62;;;;;;;31.28;43.92;99452.28;1741072;81;21146;-87
2021/07/01 09:28:10;;;;;;;14.47;7.85;;;;;;;31.28;43.92;99452.28;1737030;81;21137;-86
2021/07/01 09:30:36;;;;;;;15.93;8.13;;;;;;;31.67;43.70;99446.56;1749876;81;21696;-85
2021/07/01 09:33:06;;;;;;;16.42;7.45;;;;;;;31.67;43.70;99446.56;1751823;81;21063;-85
2021/07/01 09:35:35;;;;;;;14.87;7.90;;;;;;;31.76;41.93;99448.02;1726262;82;21556;-82
2021/07/01 09:38:06;;;;;;;10.68;7.92;;;;;;;31.82;42.19;99451.27;1724446;83;21135;-84
2021/07/01 09:40:34;;;;;;;;;;;;;;;31.97;41.24;99446.44;1731470;81;21123;-84
2021/07/01 09:43:07;;;;;;;13.28;7.92;;;;;;;32.37;41.05;99442.75;1724481;83;20467;-80
2021/07/01 09:45:35;;;;;;;17.40;7.42;;;;;;;32.73;39.90;99438.65;1728882;81;21043;-77
2021/07/01 09:48:13;;;;;;;14.58;7.10;;;;;;;32.75;39.34;99440.09;1729395;81;21069;-80
2021/07/01 09:50:47;;;;;;;12.80;6.83;;;;;;;32.76;38.30;99439.06;1729403;81;21120;-82
2021/07/01 09:53:31;;;;;;;15.15;6.58;;;;;;;32.90;38.88;99440.32;1737203;81;21037;-78
2021/07/01 09:56:06;;;;;;;12.45;7.10;;;;;;;33.17;37.55;99429.58;1743134;81;21068;-80
2021/07/01 09:58:40;;;;;;;13.83;6.47;;;;;;;33.46;37.13;99428.63;1735172;81;21043;-80
2021/07/01 10:01:07;;;;;;;16.93;6.65;;;;;;;33.35;36.86;99434.27;1734059;81;21734;-80
2021/07/01 10:03:56;;;;;;;15.38;6.47;;;;;;;33.22;37.35;99431.13;1697046;83;21159;-79
2021/07/01 10:06:23;;;;;;;11.83;6.50;;;;;;;33.18;37.48;99428.53;1723055;83;21069;-79
2021/07/01 10:08:54;;;;;;;13.85;6.60;;;;;;;33.16;37.81;99425.19;1738632;81;21104;-78
2021/07/01 10:11:36;;;;;;;7.20;6.12;;;;;;;33.01;37.96;99421.90;1731481;81;21484;-78
2021/07/01 10:14:12;;;;;;;8.70;5.70;;;;;;;33.03;38.88;99419.79;1740389;81;21774;-79
2021/07/01 10:16:39;;;;;;;10.08;5.90;;;;;;;33.11;37.62;99418.73;1727845;81;21127;-79
2021/07/01 10:19:10;;;;;;;14.90;5.42;;;;;;;32.92;37.38;99412.31;1724482;82;21064;-78
2021/07/01 10:21:38;;;;;;;9.63;5.58;;;;;;;32.65;37.29;99411.63;1728116;82;21120;-79
2021/07/01 10:24:12;;;;;;;10.10;5.37;;;;;;;32.16;37.94;99401.16;1740459;82;21069;-79
2021/07/01 10:26:50;;;;;;;9.20;5.80;;;;;;;31.91;37.64;99400.98;1707264;83;21103;-78
2021/07/01 10:29:18;;;;;;;10.78;5.50;;;;;;;31.97;36.64;99400.14;1736967;82;22094;-78
2021/07/01 10:31:51;;;;;;;16.50;6.42;;;;;;;32.10;36.59;99392.47;1736222;82;21687;-80
2021/07/01 10:34:18;;;;;;;15.65;6.80;;;;;;;32.20;36.32;99393.38;1733952;82;21033;-85
2021/07/01 10:36:47;;;;;;;14.93;6.03;;;;;;;32.15;35.97;99381.76;1731700;82;21672;-87
2021/07/01 10:39:14;;;;;;;8.85;5.25;;;;;;;32.27;37.33;99386.53;1711859;83;21068;-91
2021/07/01 10:41:43;;;;;;;12.37;5.17;;;;;;;31.94;37.38;99388.30;1712139;83;21977;-85
2021/07/01 10:44:25;;;;;;;10.50;5.80;;;;;;;31.74;37.78;99386.14;1734714;82;21199;-86
2021/07/01 10:46:51;;;;;;;11.93;5.30;;;;;;;31.65;38.10;99388.78;1741234;82;21081;-83
2021/07/01 10:49:18;;;;;;;15.03;5.40;;;;;;;31.91;37.79;99378.34;1736867;82;21085;-84
2021/07/01 10:51:56;;;;;;;9.25;5.10;;;;;;;32.34;37.30;99381.36;1702347;83;21062;-85
2021/07/01 10:54:22;;;;;;;10.72;4.22;;;;;;;32.44;36.49;99377.33;1721979;82;21145;-80
2021/07/01 10:56:55;;;;;;;10.68;4.47;;;;;;;32.38;35.84;99371.70;1740581;82;21117;-78
2021/07/01 10:59:22;;;;;;;15.18;4.62;;;;;;;32.30;36.22;99373.33;1719831;82;21105;-81
2021/07/01 11:01:52;;;;;;;8.48;3.85;;;;;;;32.15;36.84;99373.59;1721254;82;21077;-86
2021/07/01 11:04:20;;;;;;;;;;;;;;;31.90;36.42;99372.07;1738767;82;21049;-87
2021/07/01 11:06:59;;;;;;;14.13;4.17;;;;;;;31.83;37.09;99378.06;1722413;82;21086;-85
2021/07/01 11:09:44;;;;;;;10.68;4.05;;;;;;;31.93;36.83;99371.66;1682122;84;21082;-85
2021/07/01 11:12:11;;;;;;;14.78;3.75;;;;;;;31.91;35.87;99371.04;1726488;82;21029;-88
2021/07/01 11:14:46;;;;;;;10.48;4.72;;;;;;;31.79;36.06;99370.00;1741095;82;21600;-86
2021/07/01 11:17:13;;;;;;;16.40;4.60;;;;;;;31.73;35.93;99371.70;1736828;82;21568;-88
2021/07/01 11:19:47;;;;;;;17.62;5.72;;;;;;;31.74;35.95;99358.93;1729064;81;21162;-85
2021/07/01 11:22:14;;;;;;;11.60;4.30;;;;;;;31.82;36.81;99364.66;1731565;82;21065;-87
2021/07/01 11:24:45;;;;;;;10.38;4.33;;;;;;;32.09;36.56;99364.08;1731547;82;22157;-86
2021/07/01 11:27:12;;;;;;;9.08;4.28;;;;;;;32.11;35.52;99356.53;1735627;81;21044;-87
2021/07/01 11:29:46;;;;;;;17.67;4.90;;;;;;;32.38;35.75;99358.08;1746752;81;21053;-87
2021/07/01 11:32:26;;;;;;;11.70;4.15;;;;;;;32.58;35.84;99368.08;1736476;82;21065;-86
2021/07/01 11:34:55;;;;;;;13.93;4.62;;;;;;;32.55;34.89;99349.42;1719396;82;21081;-86
2021/07/01 11:37:38;;;;;;;8.28;3.55;;;;;;;32.63;35.13;99357.35;1747190;82;21596;-87
2021/07/01 11:40:20;;;;;;;10.08;4.45;;;;;;;32.45;35.62;99357.22;1748964;82;21153;-86